createdAt,value
2017-11-25T00:01:51.031Z,22.13
2017-11-25T00:04:18.728Z,19.60
2017-11-25T00:06:46.493Z,18.83
2017-11-25T00:09:14.199Z,19.67
2017-11-25T00:11:42.016Z,18.83
2017-11-25T00:14:09.825Z,19.90
2017-11-25T00:16:37.551Z,19.70
2017-11-25T00:19:05.343Z,21.40
2017-11-25T00:21:33.076Z,21.57
2017-11-25T00:24:00.781Z,22.40
2017-11-25T00:26:28.534Z,20.83
2017-11-25T00:28:56.318Z,21.20
2017-11-25T00:31:24.124Z,19.77
2017-11-25T00:33:51.844Z,16.67
2017-11-25T00:36:19.591Z,20.57
2017-11-25T00:38:47.356Z,20.33
2017-11-25T00:41:15.036Z,22.50
2017-11-25T00:43:42.796Z,20.83
2017-11-25T00:46:10.489Z,22.83
2017-11-25T00:48:38.228Z,23.80
2017-11-25T00:51:06.001Z,23.23
2017-11-25T00:53:33.769Z,24.70
2017-11-25T00:56:01.510Z,22.70
2017-11-25T00:58:29.320Z,19.07
2017-11-25T01:00:57.115Z,21.97
2017-11-25T01:03:24.809Z,21.13
2017-11-25T01:05:52.508Z,24.00
2017-11-25T01:08:20.349Z,19.43
2017-11-25T01:10:48.155Z,21.00
2017-11-25T01:13:15.896Z,22.60
2017-11-25T01:15:43.581Z,20.60
2017-11-25T01:18:11.328Z,24.70
2017-11-25T01:20:39.061Z,21.50
2017-11-25T01:23:06.794Z,15.80
2017-11-25T01:25:34.593Z,17.43
2017-11-25T01:28:02.649Z,18.30
2017-11-25T01:30:30.397Z,15.60
2017-11-25T01:32:58.100Z,14.60
2017-11-25T01:35:25.821Z,14.03
2017-11-25T01:37:53.556Z,12.90
2017-11-25T01:40:21.295Z,13.13
2017-11-25T01:42:49.099Z,15.00
2017-11-25T01:45:16.867Z,15.00
2017-11-25T01:47:44.555Z,16.30
2017-11-25T01:50:12.392Z,15.80
2017-11-25T01:52:40.266Z,12.80
2017-11-25T01:55:08.110Z,10.40
2017-11-25T01:57:35.882Z,12.20
2017-11-25T02:00:03.741Z,10.70
2017-11-25T02:02:31.595Z,10.90
2017-11-25T02:04:59.300Z,10.87
2017-11-25T02:07:31.747Z,9.90
2017-11-25T02:09:59.473Z,11.70
2017-11-25T02:12:27.183Z,12.10
2017-11-25T02:14:54.932Z,11.40
2017-11-25T02:17:22.613Z,11.40
2017-11-25T02:19:50.376Z,11.60
2017-11-25T02:22:18.180Z,12.37
2017-11-25T02:24:45.946Z,13.00
2017-11-25T02:27:13.744Z,10.63
2017-11-25T02:29:41.491Z,12.67
2017-11-25T02:32:09.310Z,13.30
2017-11-25T02:34:37.114Z,11.73
2017-11-25T02:37:04.822Z,8.60
2017-11-25T02:39:32.642Z,10.60
2017-11-25T02:42:00.385Z,8.50
2017-11-25T02:44:28.105Z,9.63
2017-11-25T02:46:55.936Z,10.40
2017-11-25T02:49:23.705Z,8.17
2017-11-25T02:51:51.515Z,10.40
2017-11-25T02:54:19.253Z,6.73
2017-11-25T02:56:47.052Z,7.60
2017-11-25T02:59:14.822Z,12.20
2017-11-25T03:01:42.615Z,8.67
2017-11-25T03:04:10.356Z,9.00
2017-11-25T03:06:38.142Z,9.80
2017-11-25T03:09:05.887Z,9.40
2017-11-25T03:11:33.622Z,9.03
2017-11-25T03:14:01.421Z,9.33
2017-11-25T03:16:29.175Z,8.07
2017-11-25T03:18:56.994Z,8.70
2017-11-25T03:21:24.766Z,12.73
2017-11-25T03:23:52.477Z,15.00
2017-11-25T03:26:20.166Z,13.03
2017-11-25T03:28:47.898Z,8.00
2017-11-25T03:31:15.648Z,9.13
2017-11-25T03:33:43.404Z,9.90
2017-11-25T03:36:11.118Z,9.67
2017-11-25T03:38:38.824Z,15.30
2017-11-25T03:41:06.655Z,11.50
2017-11-25T03:43:34.371Z,8.00
2017-11-25T03:46:02.113Z,7.80
2017-11-25T03:48:29.887Z,5.90
2017-11-25T03:50:57.573Z,6.20
2017-11-25T03:53:25.304Z,5.87
2017-11-25T03:55:53.071Z,6.20
2017-11-25T03:58:20.816Z,5.13
2017-11-25T04:00:48.590Z,5.87
2017-11-25T04:03:16.297Z,5.40
2017-11-25T04:05:44.016Z,4.60
2017-11-25T04:08:11.709Z,5.63
2017-11-25T04:10:39.436Z,8.23
2017-11-25T04:13:07.124Z,11.67
2017-11-25T04:15:34.928Z,10.30
2017-11-25T04:18:02.618Z,7.73
2017-11-25T04:20:30.405Z,7.00
2017-11-25T04:22:58.156Z,9.50
2017-11-25T04:25:25.946Z,9.20
2017-11-25T04:27:53.666Z,10.20
2017-11-25T04:30:21.371Z,10.50
2017-11-25T04:32:49.140Z,8.57
2017-11-25T04:35:16.884Z,8.40
2017-11-25T04:37:44.571Z,8.03
2017-11-25T04:40:12.293Z,9.00
2017-11-25T04:42:39.998Z,9.53
2017-11-25T04:45:07.741Z,8.90
2017-11-25T04:47:35.554Z,9.80
2017-11-25T04:50:03.433Z,9.50
2017-11-25T04:52:31.185Z,9.17
2017-11-25T04:54:58.869Z,10.10
2017-11-25T04:57:26.637Z,5.50
2017-11-25T04:59:54.441Z,5.83
2017-11-25T05:02:22.273Z,7.93
2017-11-25T05:04:50.007Z,6.90
2017-11-25T05:07:17.715Z,7.77
2017-11-25T05:09:45.469Z,6.70
2017-11-25T05:12:13.218Z,5.80
2017-11-25T05:14:40.985Z,8.60
2017-11-25T05:17:08.744Z,6.90
2017-11-25T05:19:36.595Z,7.83
2017-11-25T05:22:04.356Z,9.20
2017-11-25T05:24:32.056Z,12.20
2017-11-25T05:26:59.896Z,10.07
2017-11-25T05:29:27.641Z,9.90
2017-11-25T05:31:55.417Z,7.90
2017-11-25T05:34:23.203Z,8.80
2017-11-25T05:36:50.920Z,7.77
2017-11-25T05:39:18.709Z,9.77
2017-11-25T05:41:46.472Z,10.23
2017-11-25T05:44:14.305Z,7.60
2017-11-25T05:46:42.036Z,10.87
2017-11-25T05:49:09.792Z,8.80
2017-11-25T05:51:37.593Z,10.67
2017-11-25T05:54:05.363Z,9.03
2017-11-25T05:56:33.164Z,9.33
2017-11-25T05:59:01.941Z,8.90
2017-11-25T06:01:29.885Z,9.53
2017-11-25T06:03:57.825Z,9.77
2017-11-25T06:06:25.545Z,8.97
2017-11-25T06:08:53.284Z,9.07
2017-11-25T06:11:20.988Z,8.80
2017-11-25T06:13:48.745Z,8.70
2017-11-25T06:16:16.511Z,9.87
2017-11-25T06:18:44.264Z,10.17
2017-11-25T06:21:11.979Z,10.83
2017-11-25T06:23:39.735Z,9.03
2017-11-25T06:26:07.552Z,8.47
2017-11-25T06:28:35.302Z,7.93
2017-11-25T06:31:03.003Z,8.37
2017-11-25T06:33:30.741Z,8.47
2017-11-25T06:35:58.503Z,7.10
2017-11-25T06:38:26.202Z,8.70
2017-11-25T06:40:53.939Z,9.63
2017-11-25T06:43:21.824Z,8.87
2017-11-25T06:45:49.604Z,9.30
2017-11-25T06:48:17.391Z,9.13
2017-11-25T06:50:45.201Z,8.80
2017-11-25T06:53:12.929Z,9.90
2017-11-25T06:55:40.603Z,8.67
2017-11-25T06:58:08.341Z,9.50
2017-11-25T07:00:36.040Z,8.93
2017-11-25T07:03:03.822Z,8.00
2017-11-25T07:05:31.566Z,7.57
2017-11-25T07:07:59.262Z,9.00
2017-11-25T07:10:27.109Z,8.13
2017-11-25T07:12:54.871Z,10.00
2017-11-25T07:15:22.677Z,9.57
2017-11-25T07:17:50.478Z,7.67
2017-11-25T07:20:18.261Z,6.80
2017-11-25T07:22:46.045Z,9.40
2017-11-25T07:25:13.897Z,8.83
2017-11-25T07:27:41.893Z,8.27
2017-11-25T07:30:09.689Z,8.00
2017-11-25T07:32:37.960Z,7.60
2017-11-25T07:35:05.740Z,7.07
2017-11-25T07:37:33.513Z,7.73
2017-11-25T07:40:01.454Z,7.90
2017-11-25T07:42:29.273Z,9.50
2017-11-25T07:44:57.197Z,6.40
2017-11-25T07:47:24.968Z,7.77
2017-11-25T07:49:52.785Z,7.90
2017-11-25T07:52:20.581Z,8.60
2017-11-25T07:54:48.304Z,9.77
2017-11-25T07:57:16.105Z,6.90
2017-11-25T07:59:43.801Z,8.30
2017-11-25T08:02:11.542Z,9.67
2017-11-25T08:04:39.365Z,6.50
2017-11-25T08:07:07.110Z,9.73
2017-11-25T08:09:34.926Z,17.17
2017-11-25T08:12:02.722Z,15.27
2017-11-25T08:14:30.453Z,9.10
2017-11-25T08:16:58.291Z,7.90
2017-11-25T08:19:26.087Z,7.77
2017-11-25T08:21:54.507Z,7.20
2017-11-25T08:24:22.280Z,7.13
2017-11-25T08:26:50.048Z,8.97
2017-11-25T08:29:17.779Z,7.10
2017-11-25T08:31:45.633Z,7.83
2017-11-25T08:34:14.329Z,8.40
2017-11-25T08:36:42.145Z,7.80
2017-11-25T08:39:09.862Z,6.80
2017-11-25T08:41:37.681Z,7.33
2017-11-25T08:44:05.400Z,7.70
2017-11-25T08:46:33.097Z,8.30
2017-11-25T08:49:00.973Z,8.10
2017-11-25T08:51:29.717Z,8.60
2017-11-25T08:53:57.584Z,10.47
2017-11-25T08:56:25.432Z,6.90
2017-11-25T08:58:53.272Z,9.50
2017-11-25T09:01:21.051Z,6.73
2017-11-25T09:03:48.836Z,10.33
2017-11-25T09:06:16.685Z,7.60
2017-11-25T09:08:44.390Z,8.13
2017-11-25T09:11:12.174Z,17.90
2017-11-25T09:13:39.970Z,18.70
2017-11-25T09:16:07.769Z,14.63
2017-11-25T09:18:35.523Z,12.17
2017-11-25T09:21:03.373Z,10.50
2017-11-25T09:23:31.958Z,11.00
2017-11-25T09:25:59.746Z,14.33
2017-11-25T09:28:27.577Z,13.43
2017-11-25T09:30:55.387Z,10.47
2017-11-25T09:33:23.714Z,10.93
2017-11-25T09:35:51.491Z,15.43
2017-11-25T09:38:19.240Z,15.43
2017-11-25T09:40:47.240Z,14.67
2017-11-25T09:43:15.034Z,11.80
2017-11-25T09:45:43.998Z,11.40
2017-11-25T09:48:11.926Z,14.77
2017-11-25T09:50:39.686Z,15.27
2017-11-25T09:53:07.847Z,14.60
2017-11-25T09:55:35.629Z,15.80
2017-11-25T09:58:03.411Z,15.50
2017-11-25T10:00:31.296Z,12.70
2017-11-25T10:02:59.785Z,12.10
2017-11-25T10:05:28.513Z,12.70
2017-11-25T10:07:56.256Z,11.10
2017-11-25T10:10:24.250Z,13.00
2017-11-25T10:12:52.488Z,11.40
2017-11-25T10:15:21.157Z,11.00
2017-11-25T10:17:49.084Z,11.50
2017-11-25T10:20:16.808Z,8.67
2017-11-25T10:22:44.565Z,11.90
2017-11-25T10:25:12.367Z,11.07
2017-11-25T10:27:40.442Z,11.63
2017-11-25T10:30:08.207Z,13.00
2017-11-25T10:32:35.960Z,9.37
2017-11-25T10:35:03.739Z,10.30
2017-11-25T10:37:31.788Z,10.73
2017-11-25T10:39:59.648Z,9.00
2017-11-25T10:42:27.501Z,14.50
2017-11-25T10:44:55.360Z,13.43
2017-11-25T10:47:23.372Z,9.70
2017-11-25T10:49:51.230Z,13.37
2017-11-25T10:52:19.073Z,12.63
2017-11-25T10:54:46.957Z,13.60
2017-11-25T10:57:14.758Z,14.77
2017-11-25T10:59:42.552Z,14.30
2017-11-25T11:02:11.107Z,14.43
2017-11-25T11:04:38.967Z,14.20
2017-11-25T11:07:06.745Z,14.57
2017-11-25T11:09:34.517Z,17.23
2017-11-25T11:12:02.237Z,28.10
2017-11-25T11:14:30.133Z,19.60
2017-11-25T11:16:57.958Z,14.43
2017-11-25T11:19:25.774Z,12.80
2017-11-25T11:21:53.485Z,14.87
2017-11-25T11:24:21.281Z,13.70
2017-11-25T11:26:49.021Z,14.60
2017-11-25T11:29:16.972Z,11.30
2017-11-25T11:31:44.752Z,9.97
2017-11-25T11:34:12.563Z,10.33
2017-11-25T11:36:40.312Z,9.57
2017-11-25T11:39:08.070Z,9.50
2017-11-25T11:41:35.930Z,8.80
2017-11-25T11:44:03.738Z,8.77
2017-11-25T11:46:31.525Z,8.53
2017-11-25T11:48:59.229Z,7.27
2017-11-25T11:51:27.536Z,9.77
2017-11-25T11:53:55.377Z,7.50
2017-11-25T11:56:23.192Z,8.17
2017-11-25T11:58:51.180Z,7.23
2017-11-25T12:01:19.349Z,7.03
2017-11-25T12:03:47.149Z,5.00
2017-11-25T12:06:14.902Z,5.37
2017-11-25T12:08:42.716Z,5.50
2017-11-25T12:11:10.485Z,6.20
2017-11-25T12:13:38.419Z,6.50
2017-11-25T12:16:06.190Z,6.37
2017-11-25T12:18:34.024Z,6.53
2017-11-25T12:21:01.988Z,6.80
2017-11-25T12:23:29.875Z,7.37
2017-11-25T12:25:57.769Z,6.10
2017-11-25T12:28:25.562Z,5.40
2017-11-25T12:30:53.385Z,6.60
2017-11-25T12:33:22.354Z,5.90
2017-11-25T12:35:51.239Z,5.90
2017-11-25T12:38:18.980Z,5.87
2017-11-25T12:40:46.768Z,6.93
2017-11-25T12:43:14.486Z,8.50
2017-11-25T12:45:42.248Z,7.37
2017-11-25T12:48:10.025Z,8.83
2017-11-25T12:50:37.899Z,7.10
2017-11-25T12:53:05.647Z,12.23
2017-11-25T12:55:33.381Z,7.50
2017-11-25T12:58:02.805Z,7.50
2017-11-25T13:00:30.658Z,9.40
2017-11-25T13:02:58.523Z,6.60
2017-11-25T13:05:26.428Z,5.57
2017-11-25T13:07:54.211Z,6.63
2017-11-25T13:10:22.012Z,7.73
2017-11-25T13:12:49.822Z,7.60
2017-11-25T13:15:17.578Z,8.90
2017-11-25T13:17:45.369Z,6.73
2017-11-25T13:20:13.129Z,7.20
2017-11-25T13:22:40.931Z,6.73
2017-11-25T13:25:08.734Z,8.00
2017-11-25T13:27:36.483Z,10.33
2017-11-25T13:30:05.837Z,9.63
2017-11-25T13:32:33.635Z,10.27
2017-11-25T13:35:01.377Z,8.40
2017-11-25T13:37:29.094Z,6.70
2017-11-25T13:39:57.000Z,6.03
2017-11-25T13:42:24.770Z,6.63
2017-11-25T13:44:53.456Z,7.00
2017-11-25T13:47:21.235Z,5.83
2017-11-25T13:49:48.989Z,8.00
2017-11-25T13:52:16.763Z,5.70
2017-11-25T13:54:44.505Z,6.40
2017-11-25T13:57:12.358Z,6.60
2017-11-25T13:59:40.076Z,7.53
2017-11-25T14:02:07.960Z,7.30
2017-11-25T14:04:35.781Z,8.40
2017-11-25T14:07:03.570Z,7.77
2017-11-25T14:09:31.512Z,8.47
2017-11-25T14:11:59.292Z,6.90
2017-11-25T14:14:27.058Z,6.33
2017-11-25T14:16:54.824Z,6.13
2017-11-25T14:19:23.237Z,7.63
2017-11-25T14:21:51.066Z,7.00
2017-11-25T14:24:19.067Z,5.27
2017-11-25T14:26:46.817Z,5.47
2017-11-25T14:29:14.567Z,5.83
2017-11-25T14:31:42.282Z,5.00
2017-11-25T14:34:10.077Z,8.23
2017-11-25T14:36:37.871Z,7.83
2017-11-25T14:39:05.644Z,6.27
2017-11-25T14:41:33.393Z,6.57
2017-11-25T14:44:01.197Z,5.80
2017-11-25T14:46:28.948Z,5.87
2017-11-25T14:48:56.866Z,7.63
2017-11-25T14:51:24.662Z,5.20
2017-11-25T14:53:53.131Z,5.70
2017-11-25T14:56:20.909Z,4.67
2017-11-25T14:58:48.705Z,4.40
2017-11-25T15:01:16.404Z,4.43
2017-11-25T15:03:44.180Z,3.93
2017-11-25T15:06:11.936Z,5.27
2017-11-25T15:08:39.660Z,11.77
2017-11-25T15:11:07.415Z,7.30
2017-11-25T15:13:35.201Z,5.00
2017-11-25T15:16:03.725Z,4.87
2017-11-25T15:18:31.576Z,5.80
2017-11-25T15:20:59.309Z,7.97
2017-11-25T15:23:27.039Z,11.37
2017-11-25T15:25:54.837Z,6.47
2017-11-25T15:28:22.690Z,6.10
2017-11-25T15:30:50.537Z,6.70
2017-11-25T15:33:19.097Z,8.50
2017-11-25T15:35:47.060Z,5.53
2017-11-25T15:38:14.815Z,5.50
2017-11-25T15:40:43.514Z,8.40
2017-11-25T15:43:11.247Z,7.60
2017-11-25T15:45:39.033Z,7.73
2017-11-25T15:48:06.869Z,7.50
2017-11-25T15:50:34.655Z,5.77
2017-11-25T15:53:02.429Z,6.33
2017-11-25T15:55:30.291Z,6.20
2017-11-25T15:57:58.068Z,6.50
2017-11-25T16:00:25.982Z,6.10
2017-11-25T16:02:53.791Z,6.50
2017-11-25T16:05:21.570Z,12.07
2017-11-25T16:07:49.377Z,7.00
2017-11-25T16:10:17.183Z,7.80
2017-11-25T16:12:46.111Z,5.87
2017-11-25T16:15:13.929Z,14.90
2017-11-25T16:17:41.823Z,7.50
2017-11-25T16:20:09.658Z,7.17
2017-11-25T16:22:37.422Z,7.50
2017-11-25T16:25:05.163Z,6.70
2017-11-25T16:27:33.570Z,5.20
2017-11-25T16:30:01.346Z,5.20
2017-11-25T16:32:29.110Z,5.17
2017-11-25T16:34:56.911Z,7.97
2017-11-25T16:37:24.725Z,13.10
2017-11-25T16:39:52.550Z,43.77
2017-11-25T16:42:20.406Z,52.37
2017-11-25T16:44:48.146Z,18.10
2017-11-25T16:47:15.908Z,16.87
2017-11-25T16:49:43.607Z,10.80
2017-11-25T16:52:11.368Z,6.80
2017-11-25T16:54:39.138Z,6.00
2017-11-25T16:57:06.962Z,9.90
2017-11-25T16:59:34.714Z,7.93
2017-11-25T17:02:02.413Z,7.30
2017-11-25T17:04:30.210Z,5.43
2017-11-25T17:06:58.071Z,6.43
2017-11-25T17:09:26.605Z,5.50
2017-11-25T17:11:54.314Z,4.47
2017-11-25T17:14:22.090Z,4.30
2017-11-25T17:16:49.789Z,5.63
2017-11-25T17:19:17.533Z,4.40
2017-11-25T17:21:45.298Z,4.40
2017-11-25T17:24:12.991Z,4.10
2017-11-25T17:26:40.761Z,4.47
2017-11-25T17:29:08.545Z,4.50
2017-11-25T17:31:36.364Z,3.20
2017-11-25T17:34:04.119Z,3.07
2017-11-25T17:36:32.037Z,1.80
2017-11-25T17:38:59.841Z,2.27
2017-11-25T17:41:27.645Z,2.13
2017-11-25T17:43:56.062Z,1.90
2017-11-25T17:46:23.770Z,2.90
2017-11-25T17:48:52.619Z,2.00
2017-11-25T17:51:20.348Z,5.67
2017-11-25T17:53:49.182Z,7.70
2017-11-25T17:56:16.874Z,6.37
2017-11-25T17:58:44.686Z,5.50
2017-11-25T18:01:12.394Z,3.53
2017-11-25T18:03:40.159Z,4.73
2017-11-25T18:06:07.893Z,1.83
2017-11-25T18:08:35.689Z,1.20
2017-11-25T18:11:03.483Z,3.60
2017-11-25T18:13:31.183Z,5.93
2017-11-25T18:15:58.952Z,4.77
2017-11-25T18:18:26.654Z,1.03
2017-11-25T18:20:54.450Z,0.80
2017-11-25T18:23:22.294Z,0.93
2017-11-25T18:25:50.114Z,0.90
2017-11-25T18:28:17.928Z,0.80
2017-11-25T18:30:45.769Z,0.57
2017-11-25T18:33:13.474Z,0.40
2017-11-25T18:35:41.276Z,0.80
2017-11-25T18:38:09.036Z,0.60
2017-11-25T18:40:36.867Z,0.57
2017-11-25T18:43:04.615Z,1.10
2017-11-25T18:45:33.097Z,1.23
2017-11-25T18:48:00.968Z,1.30
2017-11-25T18:50:28.798Z,1.20
2017-11-25T18:52:56.953Z,0.47
2017-11-25T18:55:24.984Z,0.80
2017-11-25T18:57:52.774Z,0.63
2017-11-25T19:00:21.680Z,11.80
2017-11-25T19:02:49.456Z,3.93
2017-11-25T19:05:17.228Z,8.47
2017-11-25T19:07:44.924Z,7.60
2017-11-25T19:10:12.731Z,5.60
2017-11-25T19:12:40.489Z,3.80
2017-11-25T19:15:08.284Z,2.53
2017-11-25T19:17:36.036Z,2.83
2017-11-25T19:20:03.876Z,1.10
2017-11-25T19:22:31.630Z,1.20
2017-11-25T19:25:00.581Z,1.30
2017-11-25T19:27:28.364Z,1.23
2017-11-25T19:29:56.158Z,1.00
2017-11-25T19:32:23.927Z,1.30
2017-11-25T19:34:51.784Z,1.07
2017-11-25T19:37:19.514Z,0.93
2017-11-25T19:39:47.322Z,0.80
2017-11-25T19:42:15.174Z,0.40
2017-11-25T19:44:43.032Z,0.43
2017-11-25T19:47:10.980Z,0.50
2017-11-25T19:49:38.795Z,0.63
2017-11-25T19:52:07.604Z,0.70
2017-11-25T19:54:35.572Z,0.63
2017-11-25T19:57:03.439Z,1.03
2017-11-25T19:59:31.495Z,0.70
2017-11-25T20:01:59.246Z,1.20
2017-11-25T20:04:27.041Z,0.90
2017-11-25T20:06:54.817Z,0.43
2017-11-25T20:09:22.622Z,0.83
2017-11-25T20:11:50.403Z,0.70
2017-11-25T20:14:18.108Z,0.40
2017-11-25T20:16:45.972Z,0.20
2017-11-25T20:19:13.712Z,0.20
2017-11-25T20:21:41.447Z,0.27
2017-11-25T20:24:09.222Z,0.20
2017-11-25T20:26:37.001Z,0.60
2017-11-25T20:29:04.827Z,0.30
2017-11-25T20:31:32.610Z,0.40
2017-11-25T20:34:00.314Z,0.97
2017-11-25T20:36:28.042Z,0.37
2017-11-25T20:38:55.768Z,0.40
2017-11-25T20:41:23.506Z,0.23
2017-11-25T20:43:51.171Z,0.20
2017-11-25T20:46:18.936Z,0.30
2017-11-25T20:48:46.643Z,0.40
2017-11-25T20:51:14.435Z,0.20
2017-11-25T20:53:42.274Z,0.20
2017-11-25T20:56:09.975Z,2.70
2017-11-25T20:58:37.710Z,7.60
2017-11-25T21:01:05.455Z,1.87
2017-11-25T21:03:33.159Z,0.77
2017-11-25T21:06:02.036Z,0.67
2017-11-25T21:08:29.802Z,0.20
2017-11-25T21:10:59.113Z,0.40
2017-11-25T21:13:26.873Z,0.20
2017-11-25T21:15:54.637Z,0.33
2017-11-25T21:18:22.436Z,0.30
2017-11-25T21:20:50.191Z,0.20
2017-11-25T21:23:17.977Z,0.60
2017-11-25T21:25:45.690Z,0.27
2017-11-25T21:28:13.450Z,0.40
2017-11-25T21:30:41.154Z,0.30
2017-11-25T21:33:08.861Z,0.53
2017-11-25T21:35:36.611Z,0.47
2017-11-25T21:38:04.382Z,0.30
2017-11-25T21:40:32.169Z,0.50
2017-11-25T21:42:59.875Z,0.27
2017-11-25T21:45:27.640Z,6.70
2017-11-25T21:47:55.461Z,1.43
2017-11-25T21:50:23.207Z,0.67
2017-11-25T21:52:51.044Z,0.50
2017-11-25T21:55:18.782Z,0.30
2017-11-25T21:57:46.575Z,0.80
2017-11-25T22:00:14.348Z,1.83
2017-11-25T22:02:42.055Z,2.23
2017-11-25T22:05:09.796Z,1.50
2017-11-25T22:07:37.568Z,1.83
2017-11-25T22:10:05.276Z,1.63
2017-11-25T22:12:33.012Z,0.83
2017-11-25T22:15:00.824Z,1.03
2017-11-25T22:17:28.540Z,1.37
2017-11-25T22:19:56.295Z,1.20
2017-11-25T22:22:24.077Z,1.47
2017-11-25T22:24:52.803Z,1.43
2017-11-25T22:27:20.643Z,0.30
2017-11-25T22:29:48.436Z,1.40
2017-11-25T22:32:17.445Z,1.30
2017-11-25T22:34:45.203Z,1.03
2017-11-25T22:37:12.984Z,0.70
2017-11-25T22:39:40.834Z,0.50
2017-11-25T22:42:08.624Z,0.20
2017-11-25T22:44:36.451Z,0.20
2017-11-25T22:47:04.167Z,0.20
2017-11-25T22:49:31.954Z,0.20
2017-11-25T22:52:00.093Z,0.30
2017-11-25T22:54:27.982Z,0.37
2017-11-25T22:56:55.730Z,0.30
2017-11-25T22:59:23.562Z,0.20
2017-11-25T23:01:51.245Z,0.20
2017-11-25T23:04:18.941Z,0.33
2017-11-25T23:06:46.670Z,0.20
2017-11-25T23:09:14.352Z,0.20
2017-11-25T23:11:42.181Z,0.33
2017-11-25T23:14:10.087Z,0.20
2017-11-25T23:16:38.008Z,0.60
2017-11-25T23:19:05.742Z,0.20
2017-11-25T23:21:33.452Z,0.30
2017-11-25T23:24:01.240Z,0.20
2017-11-25T23:26:29.068Z,0.30
2017-11-25T23:28:57.243Z,0.30
2017-11-25T23:31:24.923Z,0.20
2017-11-25T23:33:52.775Z,0.43
2017-11-25T23:36:20.549Z,0.30
2017-11-25T23:38:48.288Z,0.20
2017-11-25T23:41:16.033Z,0.30
2017-11-25T23:43:43.709Z,0.30
2017-11-25T23:46:11.575Z,0.30
2017-11-25T23:48:39.321Z,0.20
2017-11-25T23:51:07.028Z,0.20
2017-11-25T23:53:34.772Z,0.30
2017-11-25T23:56:02.521Z,0.70
2017-11-25T23:58:30.222Z,0.40
